Time;durP1;ratioP1;P1;durP2;ratioP2;P2;SDS_P1;SDS_P2;PMS_P1;PMS_P2;Temp;Humidity;BMP_temperature;BMP_pressure;BME280_temperature;BME280_humidity;BME280_pressure;Samples;Min_cycle;Max_cycle;Signal;HPM_P1;HPM_P2
2022/08/14 00:01:23;;;;;;;15.83;4.13;;;23.70;1.00;;;;;;5039323;28;20211;-83
2022/08/14 00:03:48;;;;;;;12.53;4.70;;;23.70;1.00;;;;;;5055090;28;20179;-83
2022/08/14 00:06:14;;;;;;;10.90;4.83;;;23.70;1.00;;;;;;5036798;28;20665;-84
2022/08/14 00:08:40;;;;;;;14.30;4.23;;;23.60;1.00;;;;;;5057182;28;20692;-82
2022/08/14 00:11:05;;;;;;;14.90;4.43;;;23.60;1.00;;;;;;5055017;28;20584;-84
2022/08/14 00:13:31;;;;;;;17.77;5.50;;;23.60;1.00;;;;;;5038025;28;20192;-83
2022/08/14 00:15:59;;;;;;;11.40;4.77;;;23.60;1.00;;;;;;5053615;28;20171;-84
2022/08/14 00:18:26;;;;;;;11.57;3.83;;;23.60;1.00;;;;;;5055673;28;20510;-84
2022/08/14 00:20:52;;;;;;;24.63;5.20;;;23.50;1.00;;;;;;5038700;28;20457;-83
2022/08/14 00:23:18;;;;;;;10.60;4.40;;;23.50;1.00;;;;;;5041557;28;20437;-82
2022/08/14 00:25:50;;;;;;;10.60;4.23;;;23.50;1.00;;;;;;5037752;28;20190;-82
2022/08/14 00:28:17;;;;;;;12.70;4.60;;;23.40;1.00;;;;;;5036970;28;20470;-83
2022/08/14 00:30:45;;;;;;;8.30;4.37;;;23.40;1.00;;;;;;5038978;28;20438;-83
2022/08/14 00:33:10;;;;;;;11.60;4.63;;;23.40;1.00;;;;;;5037115;28;20467;-82
2022/08/14 00:35:36;;;;;;;12.50;4.67;;;23.40;1.00;;;;;;5056985;28;20463;-83
2022/08/14 00:38:01;;;;;;;13.03;4.40;;;23.40;1.00;;;;;;5054446;28;20293;-83
2022/08/14 00:40:27;;;;;;;15.90;4.50;;;23.40;1.00;;;;;;5038677;28;20219;-83
2022/08/14 00:42:53;;;;;;;10.43;4.80;;;23.30;1.00;;;;;;5036481;28;20653;-83
2022/08/14 00:45:19;;;;;;;8.00;4.90;;;23.30;1.00;;;;;;5038240;28;20180;-82
2022/08/14 00:47:46;;;;;;;7.97;4.40;;;23.30;1.00;;;;;;5037370;28;20180;-83
2022/08/14 00:50:16;;;;;;;7.67;5.13;;;23.20;1.00;;;;;;5038265;28;20444;-83
2022/08/14 00:52:44;;;;;;;8.90;4.23;;;23.10;1.00;;;;;;5038345;28;20440;-84
2022/08/14 00:55:09;;;;;;;11.97;5.27;;;23.10;1.00;;;;;;5037308;28;20922;-82
2022/08/14 00:57:36;;;;;;;8.67;4.80;;;23.10;1.00;;;;;;5055466;28;20424;-83
2022/08/14 01:00:09;;;;;;;6.73;5.23;;;23.00;1.00;;;;;;5055196;28;20202;-82
2022/08/14 01:02:35;;;;;;;8.30;4.87;;;23.00;1.00;;;;;;5032850;28;20495;-84
2022/08/14 01:05:06;;;;;;;8.00;4.70;;;22.90;1.00;;;;;;5055761;28;20460;-84
2022/08/14 01:07:32;;;;;;;6.70;4.73;;;23.00;1.00;;;;;;5050522;28;20183;-83
2022/08/14 01:10:00;;;;;;;10.40;5.93;;;23.00;1.00;;;;;;5054304;28;20549;-84
2022/08/14 01:12:27;;;;;;;10.10;5.13;;;23.00;1.00;;;;;;5038275;28;20464;-84
2022/08/14 01:14:54;;;;;;;9.07;5.50;;;23.00;1.00;;;;;;5037125;28;20569;-83
2022/08/14 01:17:22;;;;;;;6.10;5.10;;;23.00;1.00;;;;;;5036584;28;20941;-83
2022/08/14 01:22:33;;;;;;;17.53;6.60;;;22.90;1.00;;;;;;5050760;28;20861;-83
2022/08/14 01:24:59;;;;;;;14.73;6.00;;;22.90;1.00;;;;;;5034794;28;20425;-83
2022/08/14 01:27:27;;;;;;;13.23;5.53;;;22.90;1.00;;;;;;5054736;28;20432;-83
2022/08/14 01:29:55;;;;;;;16.00;5.93;;;22.90;1.00;;;;;;5035823;28;20295;-82
2022/08/14 01:32:21;;;;;;;8.80;5.80;;;22.90;1.00;;;;;;5053843;28;20444;-83
2022/08/14 01:34:53;;;;;;;14.27;6.30;;;22.80;1.00;;;;;;5037463;28;20435;-83
2022/08/14 01:37:21;;;;;;;9.37;5.30;;;22.80;1.00;;;;;;5036456;28;20907;-82
2022/08/14 01:39:47;;;;;;;7.30;5.80;;;22.80;1.00;;;;;;5037520;28;20462;-83
2022/08/14 01:42:13;;;;;;;11.57;5.07;;;22.80;1.00;;;;;;5053743;28;20440;-83
2022/08/14 01:44:39;;;;;;;22.57;6.87;;;22.70;1.00;;;;;;5038479;28;20447;-83
2022/08/14 01:47:13;;;;;;;14.90;6.50;;;22.70;1.00;;;;;;5053721;28;20209;-83
2022/08/14 01:49:40;;;;;;;20.80;6.60;;;22.70;1.00;;;;;;5034472;28;20260;-83
2022/08/14 01:52:07;;;;;;;8.10;5.73;;;22.60;1.00;;;;;;5035614;28;20983;-83
2022/08/14 01:54:33;;;;;;;12.47;5.80;;;22.60;1.00;;;;;;5053647;28;20432;-84
2022/08/14 01:56:59;;;;;;;9.67;6.30;;;22.50;1.00;;;;;;5035875;28;20442;-82
2022/08/14 01:59:31;;;;;;;7.47;5.63;;;22.50;1.00;;;;;;5037050;28;20213;-83
2022/08/14 02:01:59;;;;;;;7.90;5.60;;;22.50;1.00;;;;;;5037698;28;20182;-82
2022/08/14 02:04:31;;;;;;;11.67;5.87;;;22.50;1.00;;;;;;5037617;28;20445;-83
2022/08/14 02:06:57;;;;;;;15.97;5.50;;;22.40;1.00;;;;;;5036159;28;20448;-83
2022/08/14 02:09:23;;;;;;;12.70;6.47;;;22.40;1.00;;;;;;5037171;28;20458;-83
2022/08/14 02:11:50;;;;;;;12.77;5.70;;;22.40;1.00;;;;;;5039367;28;20467;-83
2022/08/14 02:14:16;;;;;;;16.23;6.40;;;22.30;2.50;;;;;;5034705;28;20267;-84
2022/08/14 02:16:52;;;;;;;12.63;6.10;;;22.30;2.40;;;;;;5056312;28;20436;-84
2022/08/14 02:19:23;;;;;;;7.30;5.70;;;22.30;3.20;;;;;;5054121;28;20868;-83
2022/08/14 02:21:51;;;;;;;7.90;6.47;;;22.30;4.30;;;;;;5053377;28;20439;-83
2022/08/14 02:24:20;;;;;;;9.70;5.70;;;22.40;4.00;;;;;;5035869;28;20452;-82
2022/08/14 02:26:46;;;;;;;8.70;6.67;;;22.40;3.70;;;;;;5035738;28;20471;-83
2022/08/14 02:29:17;;;;;;;9.50;5.80;;;22.40;3.90;;;;;;5034155;28;20476;-82
2022/08/14 02:31:45;;;;;;;8.00;6.10;;;22.40;5.20;;;;;;5036059;28;20475;-83
2022/08/14 02:34:20;;;;;;;8.43;6.07;;;22.30;5.80;;;;;;5037255;28;20456;-83
2022/08/14 02:36:50;;;;;;;7.60;6.63;;;22.20;6.90;;;;;;5035457;28;20495;-83
2022/08/14 02:39:16;;;;;;;6.40;5.60;;;22.20;6.40;;;;;;5051132;28;21028;-83
2022/08/14 02:41:41;;;;;;;11.57;6.03;;;22.10;6.80;;;;;;5037612;28;20533;-83
2022/08/14 02:44:09;;;;;;;6.80;6.10;;;22.10;7.70;;;;;;5053744;28;20451;-83
2022/08/14 02:46:35;;;;;;;9.70;7.07;;;22.10;8.20;;;;;;5035225;28;21262;-81
2022/08/14 02:49:02;;;;;;;7.10;6.33;;;22.10;8.60;;;;;;5034631;28;20463;-83
2022/08/14 02:51:28;;;;;;;7.60;6.80;;;22.10;9.50;;;;;;5052909;28;20555;-83
2022/08/14 02:53:55;;;;;;;7.90;6.67;;;22.00;20.10;;;;;;5035678;28;20865;-85
2022/08/14 02:56:21;;;;;;;7.97;5.90;;;22.00;11.60;;;;;;5035626;28;20435;-84
2022/08/14 02:58:49;;;;;;;6.87;5.70;;;21.90;12.90;;;;;;5035641;28;20867;-83
2022/08/14 03:01:17;;;;;;;8.00;6.53;;;21.90;13.90;;;;;;5055299;28;22361;-82
2022/08/14 03:03:44;;;;;;;7.63;5.67;;;21.90;15.50;;;;;;5052877;28;20466;-83
2022/08/14 03:06:12;;;;;;;7.00;6.40;;;21.80;16.20;;;;;;5034534;28;20553;-83
2022/08/14 03:08:39;;;;;;;11.07;7.00;;;21.80;16.70;;;;;;5053337;28;20462;-83
2022/08/14 03:11:08;;;;;;;7.57;6.77;;;21.70;17.50;;;;;;5031507;28;20470;-83
2022/08/14 03:13:35;;;;;;;7.47;6.60;;;21.70;18.20;;;;;;5054107;28;20439;-83
2022/08/14 03:16:03;;;;;;;7.17;6.47;;;21.70;18.70;;;;;;5052400;28;20443;-82
2022/08/14 03:18:29;;;;;;;7.57;6.77;;;21.60;19.70;;;;;;5055500;28;20470;-83
2022/08/14 03:20:55;;;;;;;7.00;6.40;;;21.60;21.70;;;;;;5057677;28;20463;-84
2022/08/14 03:23:21;;;;;;;7.03;6.33;;;21.50;22.50;;;;;;5052411;28;20454;-85
2022/08/14 03:25:47;;;;;;;7.40;6.40;;;21.50;23.90;;;;;;5036296;28;20469;-83
2022/08/14 03:28:13;;;;;;;7.93;6.73;;;21.50;26.00;;;;;;5038448;28;20237;-83
2022/08/14 03:30:39;;;;;;;9.50;7.33;;;21.40;27.00;;;;;;5034529;28;20267;-84
2022/08/14 03:33:05;;;;;;;7.60;6.67;;;21.40;27.90;;;;;;5034636;28;20451;-84
2022/08/14 03:35:32;;;;;;;8.43;7.53;;;21.40;28.20;;;;;;5053244;28;20449;-83
2022/08/14 03:38:08;;;;;;;7.63;6.90;;;21.40;29.10;;;;;;5054104;28;20443;-84
2022/08/14 03:40:37;;;;;;;7.43;6.80;;;21.40;30.70;;;;;;5052822;28;20974;-84
2022/08/14 03:43:04;;;;;;;8.10;7.40;;;21.30;32.70;;;;;;5036361;28;20451;-83
2022/08/14 03:45:32;;;;;;;9.43;8.10;;;21.30;35.50;;;;;;5034589;28;20438;-83
2022/08/14 03:47:59;;;;;;;8.27;7.47;;;21.30;37.30;;;;;;5035766;28;20452;-84
2022/08/14 03:50:26;;;;;;;11.70;6.83;;;21.30;39.60;;;;;;5054324;28;21017;-83
2022/08/14 03:52:51;;;;;;;8.03;7.23;;;21.30;39.80;;;;;;5039960;28;20443;-84
2022/08/14 03:55:17;;;;;;;7.53;6.83;;;21.30;39.90;;;;;;5038322;28;20450;-83
2022/08/14 03:57:43;;;;;;;9.50;7.50;;;21.30;53.60;;;;;;5057291;28;20188;-83
2022/08/14 04:00:12;;;;;;;7.90;7.20;;;21.30;43.20;;;;;;5037882;28;20196;-83
2022/08/14 04:02:39;;;;;;;10.50;7.30;;;21.30;42.20;;;;;;5056522;28;20950;-83
2022/08/14 04:05:06;;;;;;;9.20;7.10;;;21.30;43.40;;;;;;5037761;28;20965;-83
2022/08/14 04:07:32;;;;;;;10.80;7.20;;;21.30;44.30;;;;;;5038891;28;20530;-84
2022/08/14 04:09:58;;;;;;;12.20;7.80;;;21.30;44.80;;;;;;5056606;28;20524;-83
2022/08/14 04:12:24;;;;;;;7.83;7.20;;;21.20;45.50;;;;;;5055105;28;20707;-83
2022/08/14 04:14:51;;;;;;;7.97;7.27;;;21.20;60.00;;;;;;5056359;28;20434;-83
2022/08/14 04:17:19;;;;;;;9.00;7.17;;;21.20;48.50;;;;;;5036268;28;20208;-84
2022/08/14 04:19:46;;;;;;;8.60;7.90;;;21.20;50.00;;;;;;5042935;28;20449;-84
2022/08/14 04:22:12;;;;;;;7.60;6.80;;;21.20;50.00;;;;;;5060165;28;20462;-83
2022/08/14 04:24:39;;;;;;;10.40;7.37;;;21.20;51.30;;;;;;5041233;28;20438;-83
2022/08/14 04:27:10;;;;;;;9.03;8.17;;;21.20;52.80;;;;;;5060293;28;20444;-83
2022/08/14 04:29:37;;;;;;;7.70;7.10;;;21.10;55.40;;;;;;5060395;28;20451;-84
2022/08/14 04:32:06;;;;;;;8.87;7.63;;;21.10;57.00;;;;;;5064005;28;20494;-83
2022/08/14 04:34:33;;;;;;;9.57;7.90;;;21.10;59.00;;;;;;5057338;28;20445;-82
2022/08/14 04:45:14;;;;;;;8.77;8.07;;;21.20;68.70;;;;;;5055086;28;20886;-83
2022/08/14 04:50:24;;;;;;;8.87;8.17;;;21.20;79.40;;;;;;5054971;28;20577;-83
2022/08/14 04:52:49;;;;;;;8.63;7.93;;;21.10;88.60;;;;;;5056869;28;20977;-82
2022/08/14 04:55:15;;;;;;;11.40;8.40;;;21.10;91.60;;;;;;5067290;28;20187;-85
2022/08/14 04:57:41;;;;;;;9.60;8.60;;;21.10;96.20;;;;;;5055413;28;20261;-82
2022/08/14 05:00:07;;;;;;;9.17;8.20;;;21.20;99.90;;;;;;5049162;28;20275;-83
2022/08/14 05:02:34;;;;;;;9.30;7.50;;;21.20;99.90;;;;;;5039556;28;20435;-84
2022/08/14 05:04:59;;;;;;;12.00;8.60;;;21.20;99.90;;;;;;5042090;28;20423;-84
2022/08/14 05:07:25;;;;;;;8.23;7.50;;;21.30;99.90;;;;;;5043344;28;20442;-84
2022/08/14 05:09:51;;;;;;;10.40;9.17;;;21.30;99.90;;;;;;5059895;28;20261;-86
2022/08/14 05:12:17;;;;;;;9.90;8.30;;;21.40;99.90;;;;;;5036410;28;20188;-85
2022/08/14 05:14:43;;;;;;;10.67;7.80;;;21.50;99.90;;;;;;5058129;28;20442;-86
2022/08/14 05:17:10;;;;;;;8.97;8.17;;;21.50;99.90;;;;;;5038691;28;20193;-86
2022/08/14 05:19:36;;;;;;;12.23;8.43;;;21.60;99.90;;;;;;5057875;28;20852;-86
2022/08/14 05:22:02;;;;;;;10.00;8.00;;;21.80;99.50;;;;;;5057282;28;20563;-86
2022/08/14 05:24:28;;;;;;;9.17;8.27;;;21.90;99.60;;;;;;5037277;28;20199;-86
2022/08/14 05:26:54;;;;;;;9.27;8.37;;;22.00;98.30;;;;;;5030209;28;20436;-86
2022/08/14 05:29:20;;;;;;;8.20;7.37;;;22.10;98.00;;;;;;5039829;28;20515;-85
2022/08/14 05:31:45;;;;;;;9.07;8.17;;;22.60;94.20;;;;;;5040999;28;20468;-86
2022/08/14 05:34:11;;;;;;;9.93;6.93;;;24.80;81.80;;;;;;5039023;28;20264;-86
2022/08/14 05:36:37;;;;;;;9.33;7.53;;;27.50;66.30;;;;;;5037483;28;20554;-87
2022/08/14 05:39:04;;;;;;;7.07;6.40;;;30.20;62.20;;;;;;5055607;28;20631;-87
2022/08/14 05:41:31;;;;;;;7.70;6.93;;;32.40;58.00;;;;;;5060049;28;20444;-87
2022/08/14 05:43:57;;;;;;;7.57;6.30;;;34.40;54.60;;;;;;5054198;28;20429;-87
2022/08/14 05:46:23;;;;;;;6.37;5.87;;;35.90;49.40;;;;;;5041251;28;20439;-87
2022/08/14 05:48:52;;;;;;;9.43;6.33;;;37.30;44.20;;;;;;5048753;28;20462;-87
2022/08/14 05:51:18;;;;;;;6.13;5.53;;;38.60;37.10;;;;;;5030950;28;20705;-88
2022/08/14 05:53:44;;;;;;;6.63;6.13;;;39.70;29.30;;;;;;5050364;28;20976;-88
2022/08/14 05:56:09;;;;;;;6.47;5.27;;;40.60;23.80;;;;;;5029009;28;20439;-86
2022/08/14 05:58:35;;;;;;;5.60;5.10;;;41.40;18.60;;;;;;5048374;28;20556;-88
2022/08/14 06:01:01;;;;;;;5.37;4.97;;;42.10;13.70;;;;;;5049798;28;20669;-88
2022/08/14 06:03:27;;;;;;;6.87;5.73;;;43.10;9.80;;;;;;5047672;28;20439;-88
2022/08/14 06:05:54;;;;;;;6.23;5.63;;;44.30;5.10;;;;;;5048731;28;20217;-88
2022/08/14 06:08:28;;;;;;;5.90;5.50;;;45.60;1.20;;;;;;5044148;28;20292;-89
2022/08/14 06:11:01;;;;;;;6.40;5.90;;;46.80;1.00;;;;;;5046917;28;20467;-86
2022/08/14 06:13:27;;;;;;;5.17;4.73;;;47.80;1.00;;;;;;5028505;28;21267;-85
2022/08/14 06:15:53;;;;;;;5.63;4.90;;;49.30;1.00;;;;;;5047102;28;20500;-86
2022/08/14 06:18:18;;;;;;;4.93;4.63;;;50.70;1.00;;;;;;5025662;28;20459;-84
2022/08/14 06:20:44;;;;;;;4.83;4.33;;;51.60;1.00;;;;;;5029219;28;20180;-82
2022/08/14 06:23:10;;;;;;;4.90;4.50;;;52.10;1.00;;;;;;5047906;28;20197;-84
2022/08/14 06:25:35;;;;;;;6.73;4.27;;;52.20;1.00;;;;;;5035757;28;20185;-83
2022/08/14 06:28:02;;;;;;;5.60;4.70;;;52.20;1.00;;;;;;5034428;28;20204;-83
2022/08/14 06:30:31;;;;;;;6.57;4.87;;;52.00;1.00;;;;;;5052606;28;20238;-83
2022/08/14 06:32:58;;;;;;;5.20;4.63;;;52.00;1.00;;;;;;5036693;28;20196;-83
2022/08/14 06:35:23;;;;;;;5.00;4.22;;;52.70;1.00;;;;;;5050355;28;20188;-83
2022/08/14 06:37:57;;;;;;;9.43;5.28;;;53.10;1.00;;;;;;5030173;28;20223;-83
2022/08/14 06:40:28;;;;;;;5.50;4.30;;;53.30;1.00;;;;;;5048737;28;20304;-84
2022/08/14 06:43:00;;;;;;;5.32;4.57;;;53.90;1.00;;;;;;5046611;28;20188;-84
2022/08/14 06:45:26;;;;;;;5.35;4.43;;;53.60;1.00;;;;;;5032351;28;20220;-84
2022/08/14 06:47:52;;;;;;;5.43;4.93;;;53.30;1.00;;;;;;5033906;28;20216;-84
2022/08/14 06:50:20;;;;;;;5.80;4.47;;;53.60;1.00;;;;;;5051866;28;20601;-84
2022/08/14 06:52:46;;;;;;;4.20;3.90;;;53.70;1.00;;;;;;5033530;28;20235;-84
2022/08/14 06:55:13;;;;;;;4.53;4.22;;;54.30;1.00;;;;;;5033219;28;20224;-84
2022/08/14 06:57:44;;;;;;;4.37;4.07;;;53.90;1.00;;;;;;5044951;28;20205;-84
2022/08/14 07:00:17;;;;;;;6.17;4.70;;;53.50;1.00;;;;;;5048823;28;20187;-85
2022/08/14 07:08:25;;;;;;;5.27;4.70;;;53.10;1.00;;;;;;5050798;28;20283;-84
2022/08/14 07:10:53;;;;;;;5.40;4.60;;;52.70;1.00;;;;;;5030230;28;20633;-84
2022/08/14 07:13:19;;;;;;;4.93;4.53;;;52.90;1.00;;;;;;5034639;28;20177;-84
2022/08/14 07:15:49;;;;;;;4.80;4.40;;;52.20;1.00;;;;;;5058389;28;20439;-84
2022/08/14 07:18:20;;;;;;;6.00;4.90;;;51.60;1.00;;;;;;5034129;28;20467;-83
2022/08/14 07:20:46;;;;;;;5.90;5.30;;;52.00;1.00;;;;;;5042761;28;20564;-84
2022/08/14 07:23:12;;;;;;;4.90;4.50;;;52.40;1.00;;;;;;5032316;28;21029;-85
2022/08/14 07:25:39;;;;;;;5.10;4.70;;;52.70;1.00;;;;;;5038626;28;20223;-84
2022/08/14 07:28:26;;;;;;;7.10;4.10;;;53.10;1.00;;;;;;5038676;28;20198;-84
2022/08/14 07:30:56;;;;;;;6.50;4.90;;;53.60;1.00;;;;;;5036105;28;20184;-84
2022/08/14 07:33:26;;;;;;;4.77;4.37;;;53.70;1.00;;;;;;5045158;28;20250;-84
2022/08/14 07:35:53;;;;;;;5.10;4.70;;;53.40;1.00;;;;;;5048177;28;20189;-83
2022/08/14 07:38:21;;;;;;;4.67;4.27;;;52.40;1.00;;;;;;5037024;28;20254;-83
2022/08/14 07:40:47;;;;;;;5.70;5.20;;;51.30;1.00;;;;;;5061656;28;20623;-87
2022/08/14 07:43:13;;;;;;;4.50;4.10;;;51.30;1.00;;;;;;5055205;28;20442;-89
2022/08/14 07:45:40;;;;;;;4.90;4.57;;;51.20;1.00;;;;;;5057575;28;20462;-82
2022/08/14 07:48:05;;;;;;;5.00;4.60;;;51.30;1.00;;;;;;5043747;28;20465;-83
2022/08/14 07:50:32;;;;;;;5.67;4.60;;;51.60;1.00;;;;;;5065009;28;20427;-81
2022/08/14 07:52:58;;;;;;;5.07;4.60;;;51.00;1.00;;;;;;5042510;28;20185;-83
2022/08/14 07:55:24;;;;;;;9.23;5.20;;;50.50;1.00;;;;;;5043912;28;20481;-84
2022/08/14 07:57:51;;;;;;;5.10;4.70;;;50.30;1.00;;;;;;5036289;28;20447;-84
2022/08/14 08:00:22;;;;;;;5.57;5.17;;;50.50;1.00;;;;;;5035947;28;21017;-83
2022/08/14 08:02:50;;;;;;;5.70;5.20;;;50.40;1.00;;;;;;5041332;28;20439;-83
2022/08/14 08:05:17;;;;;;;5.50;5.20;;;50.10;1.00;;;;;;5041133;28;20431;-83
2022/08/14 08:07:44;;;;;;;5.23;4.83;;;49.50;1.00;;;;;;5042728;28;20463;-83
2022/08/14 08:10:31;;;;;;;4.60;4.30;;;49.80;1.00;;;;;;5043131;28;20431;-83
2022/08/14 08:13:15;;;;;;;7.97;4.83;;;50.10;1.00;;;;;;5047825;28;20500;-82
2022/08/14 08:15:44;;;;;;;4.93;4.53;;;50.60;1.00;;;;;;5063863;28;20714;-83
2022/08/14 08:18:12;;;;;;;6.03;4.97;;;51.30;1.00;;;;;;5064764;28;20447;-84
2022/08/14 08:20:41;;;;;;;4.50;4.17;;;51.70;1.00;;;;;;5047007;28;20455;-82
2022/08/14 08:23:08;;;;;;;7.17;4.40;;;51.60;1.00;;;;;;5065229;28;20458;-82
2022/08/14 08:25:40;;;;;;;4.77;4.43;;;51.30;1.00;;;;;;5049207;28;20491;-83
2022/08/14 08:28:08;;;;;;;4.50;4.10;;;51.10;1.00;;;;;;5048231;28;20447;-82
2022/08/14 08:30:39;;;;;;;4.90;4.60;;;51.30;1.00;;;;;;5047109;28;20434;-82
2022/08/14 08:33:06;;;;;;;5.10;4.63;;;51.30;1.00;;;;;;5065901;28;20534;-82
2022/08/14 08:35:35;;;;;;;6.30;5.00;;;51.10;1.00;;;;;;5047400;28;20428;-83
2022/08/14 08:38:06;;;;;;;4.93;4.40;;;51.60;1.00;;;;;;5045494;28;20419;-84
2022/08/14 08:40:41;;;;;;;4.63;4.17;;;52.20;1.00;;;;;;5046680;28;20498;-82
2022/08/14 08:43:16;;;;;;;4.53;4.23;;;52.30;1.00;;;;;;5047627;28;20508;-82
2022/08/14 08:45:41;;;;;;;4.70;4.10;;;52.40;1.00;;;;;;5046506;28;20445;-84
2022/08/14 08:48:07;;;;;;;5.93;4.50;;;52.70;1.00;;;;;;5046257;28;20443;-83
2022/08/14 08:50:38;;;;;;;4.13;3.83;;;53.00;1.00;;;;;;5047866;28;20883;-83
2022/08/14 08:53:09;;;;;;;4.73;4.10;;;52.90;1.00;;;;;;5065096;28;20188;-84
2022/08/14 08:55:40;;;;;;;5.10;3.70;;;52.90;1.00;;;;;;5046943;28;20419;-86
2022/08/14 08:58:09;;;;;;;4.43;3.67;;;52.60;1.00;;;;;;5047043;28;20447;-83
2022/08/14 09:00:37;;;;;;;4.17;3.87;;;52.80;1.00;;;;;;5047252;28;20463;-84
2022/08/14 09:03:06;;;;;;;4.20;3.90;;;53.50;1.00;;;;;;5046763;28;20430;-84
2022/08/14 09:05:33;;;;;;;4.20;3.60;;;54.00;1.00;;;;;;5046663;28;20203;-82
2022/08/14 09:08:25;;;;;;;5.83;3.67;;;54.00;1.00;;;;;;5063455;28;20649;-84
2022/08/14 09:10:52;;;;;;;4.50;4.20;;;53.80;1.00;;;;;;5064673;28;20208;-84
2022/08/14 09:13:18;;;;;;;4.20;3.90;;;53.50;1.00;;;;;;5046437;28;20185;-83
2022/08/14 09:15:47;;;;;;;3.43;3.23;;;53.50;1.00;;;;;;5064410;28;20279;-85
2022/08/14 09:18:16;;;;;;;3.90;3.60;;;53.60;1.00;;;;;;5046383;28;20220;-83
2022/08/14 09:20:44;;;;;;;4.17;3.87;;;53.40;1.00;;;;;;5047283;28;20587;-85
2022/08/14 09:23:11;;;;;;;4.23;3.87;;;53.70;1.00;;;;;;5046638;28;20211;-84
2022/08/14 09:25:40;;;;;;;6.87;3.70;;;53.70;1.00;;;;;;5046311;28;20180;-82
2022/08/14 09:28:07;;;;;;;4.90;4.13;;;53.50;1.00;;;;;;5045755;28;20201;-82
2022/08/14 09:30:35;;;;;;;5.50;3.90;;;53.10;1.00;;;;;;5045563;28;20431;-83
2022/08/14 09:33:01;;;;;;;4.40;4.00;;;52.50;1.00;;;;;;5063457;28;20931;-83
2022/08/14 09:35:45;;;;;;;5.90;4.43;;;52.20;1.00;;;;;;5047130;28;20446;-83
2022/08/14 09:38:32;;;;;;;4.20;3.80;;;51.70;1.00;;;;;;5047098;28;20211;-83
2022/08/14 09:41:28;;;;;;;4.93;4.27;;;52.00;1.00;;;;;;5040540;28;20502;-81
2022/08/14 09:44:05;;;;;;;7.03;4.20;;;51.40;1.00;;;;;;5038312;28;20503;-82
2022/08/14 09:46:34;;;;;;;7.80;4.00;;;51.00;1.00;;;;;;5047727;28;20419;-82
2022/08/14 09:49:00;;;;;;;10.73;4.03;;;50.70;1.00;;;;;;5047630;28;20502;-83
2022/08/14 09:51:28;;;;;;;8.37;4.20;;;50.80;1.00;;;;;;5048138;28;20463;-83
2022/08/14 09:54:11;;;;;;;4.47;3.77;;;50.70;1.00;;;;;;5049928;28;20443;-85
2022/08/14 09:56:49;;;;;;;4.13;3.83;;;50.50;1.00;;;;;;5048378;28;20430;-82
2022/08/14 09:59:21;;;;;;;4.90;4.37;;;50.50;1.00;;;;;;5040851;28;20470;-82
2022/08/14 10:01:47;;;;;;;4.97;4.57;;;50.40;1.00;;;;;;5065386;28;20451;-85
2022/08/14 10:04:19;;;;;;;10.80;3.77;;;49.80;1.00;;;;;;5039995;28;20423;-82
2022/08/14 10:06:48;;;;;;;4.30;4.00;;;49.90;1.00;;;;;;5047226;28;20423;-81
2022/08/14 10:09:14;;;;;;;5.47;3.97;;;50.00;1.00;;;;;;5047235;28;20439;-83
2022/08/14 10:11:40;;;;;;;5.90;3.47;;;49.60;1.00;;;;;;5047926;28;20431;-83
2022/08/14 10:14:48;;;;;;;5.70;3.70;;;49.40;1.00;;;;;;5065278;28;20439;-81
2022/08/14 10:17:25;;;;;;;7.23;3.40;;;49.40;1.00;;;;;;5044976;28;20423;-82
2022/08/14 10:19:51;;;;;;;3.40;3.10;;;49.00;1.00;;;;;;5046789;28;20832;-81
2022/08/14 10:22:27;;;;;;;7.87;3.77;;;49.00;1.00;;;;;;5049213;28;20535;-81
2022/08/14 10:24:53;;;;;;;6.87;3.60;;;48.90;1.00;;;;;;5050133;28;20251;-83
2022/08/14 10:27:24;;;;;;;7.90;3.57;;;48.90;1.00;;;;;;5048712;28;20997;-84
2022/08/14 10:29:52;;;;;;;5.43;3.20;;;49.10;1.00;;;;;;5067147;28;20491;-82
2022/08/14 10:32:17;;;;;;;4.20;3.60;;;49.20;1.00;;;;;;5049447;28;20450;-82
2022/08/14 10:34:44;;;;;;;9.10;4.27;;;49.10;1.00;;;;;;5047940;28;20435;-82
2022/08/14 10:37:18;;;;;;;4.73;4.33;;;48.60;1.00;;;;;;5048192;28;20189;-82
2022/08/14 10:39:56;;;;;;;5.87;3.70;;;48.10;1.00;;;;;;5047648;28;20459;-82
2022/08/14 10:42:22;;;;;;;3.27;3.03;;;48.10;1.00;;;;;;5048016;28;20458;-83
2022/08/14 10:44:50;;;;;;;4.27;3.53;;;48.50;1.00;;;;;;5067112;28;20446;-83
2022/08/14 10:47:17;;;;;;;3.90;3.40;;;48.50;1.00;;;;;;5049442;28;20453;-84
2022/08/14 10:49:59;;;;;;;4.53;4.03;;;48.30;1.00;;;;;;5067183;28;20442;-82
2022/08/14 10:52:31;;;;;;;3.97;3.47;;;47.70;1.00;;;;;;5067212;28;20408;-83
2022/08/14 10:55:12;;;;;;;4.97;3.40;;;47.70;1.00;;;;;;5048743;28;20427;-83
2022/08/14 10:57:56;;;;;;;4.40;3.40;;;47.80;1.00;;;;;;5047878;28;20556;-83
2022/08/14 11:00:28;;;;;;;3.37;3.17;;;47.70;1.00;;;;;;5048587;28;20474;-80
2022/08/14 11:03:08;;;;;;;4.57;3.10;;;47.30;1.00;;;;;;5071363;28;20447;-82
2022/08/14 11:05:46;;;;;;;3.23;2.80;;;47.30;1.00;;;;;;5070341;28;20425;-82
2022/08/14 11:08:14;;;;;;;9.33;3.60;;;47.30;1.00;;;;;;5070324;28;20436;-82
2022/08/14 11:10:49;;;;;;;4.80;3.30;;;47.10;1.00;;;;;;5053076;28;20426;-83
2022/08/14 11:13:24;;;;;;;3.60;3.30;;;47.10;1.00;;;;;;5052486;28;20441;-82
2022/08/14 11:15:50;;;;;;;4.10;3.00;;;47.50;1.00;;;;;;5053442;28;20430;-82
2022/08/14 11:18:17;;;;;;;4.23;3.23;;;48.10;1.00;;;;;;5070173;28;20454;-83
2022/08/14 11:20:53;;;;;;;3.23;2.93;;;48.30;1.00;;;;;;5054356;28;20546;-87
2022/08/14 11:23:21;;;;;;;3.77;3.07;;;48.80;1.00;;;;;;5078314;28;20458;-83
2022/08/14 11:25:48;;;;;;;3.60;3.30;;;49.10;1.00;;;;;;5054905;28;20487;-83
2022/08/14 11:28:14;;;;;;;3.43;3.20;;;49.30;1.00;;;;;;5070478;28;20439;-82
2022/08/14 11:30:43;;;;;;;4.30;3.20;;;48.90;1.00;;;;;;5072601;28;20447;-84
2022/08/14 11:33:09;;;;;;;3.90;3.50;;;48.20;1.00;;;;;;5071637;28;20573;-83
2022/08/14 11:35:38;;;;;;;3.10;2.90;;;47.30;1.00;;;;;;5054596;28;20495;-83
2022/08/14 11:38:06;;;;;;;4.20;3.03;;;46.80;1.00;;;;;;5069742;28;20450;-82
2022/08/14 11:40:37;;;;;;;5.70;3.27;;;46.60;1.00;;;;;;5054565;28;20463;-83
2022/08/14 11:43:05;;;;;;;3.80;3.60;;;46.90;1.00;;;;;;5036650;28;20487;-82
2022/08/14 11:45:36;;;;;;;7.37;3.00;;;47.30;1.00;;;;;;5053476;28;20427;-81
2022/08/14 11:48:15;;;;;;;3.53;3.27;;;47.20;1.00;;;;;;5051958;28;20447;-85
2022/08/14 11:50:40;;;;;;;3.60;2.80;;;47.40;1.00;;;;;;5053968;28;20457;-83
2022/08/14 11:53:18;;;;;;;4.57;3.40;;;47.30;1.00;;;;;;5052851;28;20436;-82
2022/08/14 11:55:44;;;;;;;4.23;3.23;;;45.90;1.00;;;;;;5049250;28;20249;-86
2022/08/14 11:58:11;;;;;;;4.30;2.93;;;45.40;1.00;;;;;;5065820;28;20496;-85
2022/08/14 12:00:58;;;;;;;4.20;2.90;;;45.40;1.00;;;;;;5049383;28;20236;-84
2022/08/14 12:03:41;;;;;;;4.80;3.10;;;46.00;1.00;;;;;;5067758;28;20447;-83
2022/08/14 12:06:12;;;;;;;3.23;3.00;;;45.80;1.00;;;;;;5046268;28;20436;-83
2022/08/14 12:08:38;;;;;;;3.73;3.50;;;45.20;1.00;;;;;;5050424;28;20526;-82
2022/08/14 12:11:06;;;;;;;3.40;3.20;;;44.10;1.00;;;;;;5043466;28;20948;-84
2022/08/14 12:13:32;;;;;;;16.63;3.27;;;44.20;1.00;;;;;;5068498;28;20469;-83
2022/08/14 12:16:03;;;;;;;3.30;3.10;;;44.30;1.00;;;;;;5050046;28;20432;-83
2022/08/14 12:18:37;;;;;;;2.90;2.70;;;44.60;1.00;;;;;;5050591;28;20501;-83
2022/08/14 12:21:21;;;;;;;4.40;3.03;;;44.70;1.00;;;;;;5050305;28;20480;-83
2022/08/14 12:24:00;;;;;;;3.93;3.30;;;45.00;1.00;;;;;;5046648;28;20791;-86
2022/08/14 12:26:26;;;;;;;3.10;2.87;;;45.20;1.00;;;;;;5066420;28;20494;-84
2022/08/14 12:29:10;;;;;;;3.67;3.37;;;45.00;1.00;;;;;;5049645;28;20440;-82
2022/08/14 12:31:37;;;;;;;3.37;3.00;;;44.70;1.00;;;;;;5067301;28;20419;-82
2022/08/14 12:34:07;;;;;;;3.20;3.00;;;44.60;1.00;;;;;;5049468;28;20468;-82
2022/08/14 12:36:34;;;;;;;6.20;3.90;;;44.70;1.00;;;;;;5066857;28;21212;-88
2022/08/14 12:39:15;;;;;;;3.47;3.17;;;44.60;1.00;;;;;;5066375;28;20440;-83
2022/08/14 12:41:54;;;;;;;3.50;3.20;;;44.50;1.00;;;;;;5049628;28;20475;-82
2022/08/14 12:44:30;;;;;;;3.30;3.10;;;44.30;1.00;;;;;;5067485;28;20416;-84
2022/08/14 12:47:15;;;;;;;3.23;3.00;;;44.10;1.00;;;;;;5049006;28;20435;-85
2022/08/14 12:49:52;;;;;;;3.53;3.20;;;44.00;1.00;;;;;;5067368;28;20440;-83
2022/08/14 12:52:33;;;;;;;3.23;3.00;;;43.70;1.00;;;;;;5065320;28;20425;-84
2022/08/14 12:55:02;;;;;;;3.03;2.73;;;43.70;1.00;;;;;;5049187;28;20438;-84
2022/08/14 12:57:41;;;;;;;3.20;2.90;;;43.50;1.00;;;;;;5050149;28;20436;-82
2022/08/14 13:00:21;;;;;;;3.90;2.70;;;43.60;1.00;;;;;;5049491;28;21032;-84
2022/08/14 13:02:53;;;;;;;3.87;2.67;;;43.80;1.00;;;;;;5042815;28;20431;-82
2022/08/14 13:05:24;;;;;;;6.50;3.07;;;44.00;1.00;;;;;;5065924;28;20436;-81
2022/08/14 13:07:51;;;;;;;6.90;2.97;;;43.80;1.00;;;;;;5045824;28;20512;-85
2022/08/14 13:10:22;;;;;;;2.90;2.57;;;43.50;1.00;;;;;;5048589;28;20459;-82
2022/08/14 13:12:50;;;;;;;3.10;2.90;;;43.20;1.00;;;;;;5065941;28;20951;-84
2022/08/14 13:15:17;;;;;;;3.13;2.50;;;43.00;1.00;;;;;;5065302;28;20436;-82
2022/08/14 13:17:49;;;;;;;3.07;2.87;;;42.30;1.00;;;;;;5048452;28;20443;-83
2022/08/14 13:20:20;;;;;;;2.90;2.70;;;41.80;1.00;;;;;;5067113;28;20435;-83
2022/08/14 13:22:46;;;;;;;3.37;3.07;;;41.70;1.00;;;;;;5047682;28;20417;-82